Time;durP1;ratioP1;P1;durP2;ratioP2;P2;SDS_P1;SDS_P2;PMS_P1;PMS_P2;Temp;Humidity;BMP_temperature;BMP_pressure;BME280_temperature;BME280_humidity;BME280_pressure;Samples;Min_cycle;Max_cycle;Signal;HPM_P1;HPM_P2
2021/06/28 00:00:33;;;;;;;4.03;3.00;;;21.50;99.90;;;;;;4992485;28;20027;-74
2021/06/28 00:02:59;;;;;;;5.65;3.10;;;21.50;99.90;;;;;;4993453;28;20038;-76
2021/06/28 00:05:26;;;;;;;3.10;2.60;;;21.50;99.90;;;;;;4993090;28;20030;-77
2021/06/28 00:07:53;;;;;;;3.05;2.55;;;21.50;99.90;;;;;;4993455;28;20039;-75
2021/06/28 00:10:22;;;;;;;4.00;3.20;;;21.50;99.90;;;;;;4993272;28;20526;-76
2021/06/28 00:12:49;;;;;;;4.22;3.00;;;21.50;99.90;;;;;;4993967;28;20027;-76
2021/06/28 00:15:19;;;;;;;3.10;2.65;;;21.50;99.90;;;;;;4992444;28;20018;-76
2021/06/28 00:17:46;;;;;;;3.42;2.50;;;21.50;99.90;;;;;;4987254;28;20031;-74
2021/06/28 00:20:14;;;;;;;3.75;2.80;;;21.50;99.90;;;;;;4977424;28;20037;-76
2021/06/28 00:22:40;;;;;;;3.38;2.78;;;21.50;99.90;;;;;;4992818;28;20042;-74
2021/06/28 00:25:11;;;;;;;4.40;3.25;;;21.50;99.90;;;;;;4993106;28;20041;-76
2021/06/28 00:27:37;;;;;;;4.07;2.80;;;21.50;99.90;;;;;;4992650;28;20499;-76
2021/06/28 00:30:12;;;;;;;5.03;2.70;;;21.50;99.90;;;;;;4992734;28;20015;-75
2021/06/28 00:32:39;;;;;;;3.33;2.60;;;21.50;99.90;;;;;;4993078;28;20041;-73
2021/06/28 00:35:05;;;;;;;4.07;2.58;;;21.50;99.90;;;;;;4992588;28;20036;-72
2021/06/28 00:37:31;;;;;;;3.88;2.75;;;21.50;99.90;;;;;;4991053;28;20387;-72
2021/06/28 00:39:57;;;;;;;4.35;2.85;;;21.50;99.90;;;;;;4992793;28;20117;-73
2021/06/28 00:42:25;;;;;;;3.80;2.65;;;21.50;99.90;;;;;;4992057;28;20502;-72
2021/06/28 00:44:51;;;;;;;3.85;2.75;;;21.50;99.90;;;;;;4991982;28;20041;-72
2021/06/28 00:47:18;;;;;;;4.13;2.75;;;21.50;99.90;;;;;;4992637;28;20495;-73
2021/06/28 00:49:44;;;;;;;3.70;2.85;;;21.50;99.90;;;;;;4992684;28;20022;-73
2021/06/28 00:52:10;;;;;;;4.85;2.88;;;21.50;99.90;;;;;;4992236;28;20372;-76
2021/06/28 00:54:37;;;;;;;4.85;2.83;;;21.50;99.90;;;;;;4992732;28;20494;-75
2021/06/28 00:57:03;;;;;;;5.22;2.90;;;21.50;99.90;;;;;;4992869;28;20030;-73
2021/06/28 00:59:31;;;;;;;3.30;2.83;;;21.50;99.90;;;;;;4991975;28;20044;-72
2021/06/28 01:01:58;;;;;;;3.38;2.60;;;21.50;99.90;;;;;;4992388;28;20046;-75
2021/06/28 01:04:24;;;;;;;3.28;2.50;;;21.50;99.90;;;;;;4991759;28;20439;-74
2021/06/28 01:06:50;;;;;;;3.72;2.88;;;21.50;99.90;;;;;;4992308;28;20042;-73
2021/06/28 01:09:15;;;;;;;2.60;2.03;;;21.40;99.90;;;;;;4992611;28;20054;-75
2021/06/28 01:11:41;;;;;;;3.80;2.63;;;21.50;99.90;;;;;;4991549;28;20026;-74
2021/06/28 01:14:07;;;;;;;2.65;2.22;;;21.40;99.90;;;;;;4992156;28;20069;-75
2021/06/28 01:16:33;;;;;;;3.15;2.53;;;21.50;99.90;;;;;;4991676;28;20030;-77
2021/06/28 01:18:59;;;;;;;3.65;2.47;;;21.40;99.90;;;;;;4991802;28;20033;-76
2021/06/28 01:21:28;;;;;;;4.13;2.83;;;21.50;99.90;;;;;;4991472;28;20019;-76
2021/06/28 01:23:55;;;;;;;3.70;2.50;;;21.50;99.90;;;;;;4991320;28;20028;-74
2021/06/28 01:26:21;;;;;;;4.57;2.42;;;21.40;99.90;;;;;;4991584;28;20105;-73
2021/06/28 01:28:46;;;;;;;2.60;2.35;;;21.40;99.90;;;;;;4991564;28;20360;-75
2021/06/28 01:31:13;;;;;;;3.55;2.58;;;21.40;99.90;;;;;;4992309;28;20085;-76
2021/06/28 01:33:39;;;;;;;3.08;2.30;;;21.50;99.90;;;;;;4991689;28;20408;-74
2021/06/28 01:36:06;;;;;;;3.50;2.55;;;21.40;99.90;;;;;;4992197;28;20157;-74
2021/06/28 01:38:32;;;;;;;3.25;2.30;;;21.40;99.90;;;;;;4991548;28;20018;-76
2021/06/28 01:40:58;;;;;;;4.40;2.60;;;21.40;99.90;;;;;;4991132;28;20030;-76
2021/06/28 01:43:24;;;;;;;3.10;2.80;;;21.40;99.90;;;;;;4991493;28;20026;-75
2021/06/28 01:45:54;;;;;;;2.88;2.40;;;21.40;99.90;;;;;;4990758;28;20121;-73
2021/06/28 01:48:20;;;;;;;2.65;2.10;;;21.40;99.90;;;;;;4988560;28;20026;-72
2021/06/28 01:50:46;;;;;;;2.53;2.15;;;21.40;99.90;;;;;;4992308;28;20023;-73
2021/06/28 01:53:13;;;;;;;4.78;2.40;;;21.40;99.90;;;;;;4991346;28;20490;-74
2021/06/28 01:55:39;;;;;;;3.72;2.80;;;21.40;99.90;;;;;;4991410;28;20023;-74
2021/06/28 01:58:08;;;;;;;3.13;2.63;;;21.40;99.90;;;;;;4991587;28;20030;-76
2021/06/28 02:00:43;;;;;;;4.15;2.22;;;21.40;99.90;;;;;;4990989;28;20034;-77
2021/06/28 02:03:14;;;;;;;3.10;2.33;;;21.40;99.90;;;;;;4991178;28;20064;-72
2021/06/28 02:06:00;;;;;;;2.75;2.03;;;21.40;99.90;;;;;;4991271;28;20031;-73
2021/06/28 02:08:29;;;;;;;3.10;2.05;;;21.40;99.90;;;;;;4990993;28;20054;-73
2021/06/28 02:10:58;;;;;;;2.88;2.00;;;21.40;99.90;;;;;;4991681;28;20054;-73
2021/06/28 02:13:26;;;;;;;2.30;2.05;;;21.30;99.90;;;;;;4990919;28;20084;-73
2021/06/28 02:15:53;;;;;;;2.67;2.20;;;21.30;99.90;;;;;;4990536;28;20038;-73
2021/06/28 02:18:21;;;;;;;3.38;2.20;;;21.30;99.90;;;;;;4988111;28;20402;-72
2021/06/28 02:20:47;;;;;;;4.43;2.58;;;21.30;99.90;;;;;;4991980;28;20034;-74
2021/06/28 02:23:22;;;;;;;2.70;2.10;;;21.30;99.90;;;;;;4991495;28;20027;-72
2021/06/28 02:25:49;;;;;;;3.22;2.50;;;21.30;99.90;;;;;;4991701;28;20034;-73
2021/06/28 02:28:15;;;;;;;4.47;2.53;;;21.30;99.90;;;;;;4991800;28;20121;-75
2021/06/28 02:30:41;;;;;;;2.85;2.08;;;21.30;99.90;;;;;;4992130;28;20019;-73
2021/06/28 02:33:07;;;;;;;3.33;2.30;;;21.30;99.90;;;;;;4994750;28;20040;-78
2021/06/28 02:35:32;;;;;;;3.10;2.30;;;21.30;99.90;;;;;;4994708;28;20594;-75
2021/06/28 02:37:58;;;;;;;2.70;2.15;;;21.30;99.90;;;;;;4995228;28;20027;-76
2021/06/28 02:40:24;;;;;;;3.30;2.08;;;21.30;99.90;;;;;;4994066;28;20026;-78
2021/06/28 02:42:49;;;;;;;2.67;2.00;;;21.30;99.90;;;;;;4994920;28;20030;-73
2021/06/28 02:45:15;;;;;;;2.40;1.90;;;21.30;99.90;;;;;;4994424;28;20022;-75
2021/06/28 02:47:41;;;;;;;2.92;2.47;;;21.30;99.90;;;;;;4997483;28;20039;-74
2021/06/28 02:50:09;;;;;;;3.03;2.10;;;21.30;99.90;;;;;;4995109;28;20033;-73
2021/06/28 02:52:35;;;;;;;2.33;1.95;;;21.30;99.90;;;;;;4994822;28;20037;-74
2021/06/28 02:55:01;;;;;;;3.42;2.03;;;21.30;99.90;;;;;;5010121;28;20026;-76
2021/06/28 02:57:27;;;;;;;4.47;2.10;;;21.30;99.90;;;;;;4994302;28;20034;-74
2021/06/28 02:59:52;;;;;;;2.38;1.90;;;21.30;99.90;;;;;;4994759;28;20042;-74
2021/06/28 03:02:18;;;;;;;2.30;1.83;;;21.30;99.90;;;;;;4995231;28;20033;-76
2021/06/28 03:04:44;;;;;;;3.35;2.00;;;21.30;99.90;;;;;;4994204;28;20034;-73
2021/06/28 03:07:09;;;;;;;2.45;2.03;;;21.30;99.90;;;;;;4994655;28;20057;-73
2021/06/28 03:09:35;;;;;;;2.80;2.03;;;21.30;99.90;;;;;;4993798;28;20030;-74
2021/06/28 03:12:00;;;;;;;2.28;1.90;;;21.30;99.90;;;;;;4994838;28;20027;-73
2021/06/28 03:14:26;;;;;;;3.22;1.85;;;21.20;99.90;;;;;;4993304;28;20026;-75
2021/06/28 03:16:52;;;;;;;2.22;1.88;;;21.20;99.90;;;;;;4993076;28;20557;-74
2021/06/28 03:19:17;;;;;;;5.22;1.83;;;21.20;99.90;;;;;;4994981;28;20438;-75
2021/06/28 03:21:43;;;;;;;2.38;1.90;;;21.20;99.90;;;;;;4993981;28;20054;-74
2021/06/28 03:24:09;;;;;;;3.75;2.00;;;21.20;99.90;;;;;;4993785;28;20030;-75
2021/06/28 03:26:34;;;;;;;2.65;1.90;;;21.20;99.90;;;;;;4992966;28;20126;-74
2021/06/28 03:29:00;;;;;;;2.75;2.05;;;21.20;99.90;;;;;;4994409;28;20030;-76
2021/06/28 03:31:29;;;;;;;3.10;2.05;;;21.20;99.90;;;;;;4993918;28;20495;-73
2021/06/28 03:33:55;;;;;;;3.70;2.10;;;21.20;99.90;;;;;;4993996;28;20014;-72
2021/06/28 03:36:21;;;;;;;2.88;2.08;;;21.20;99.90;;;;;;4994207;28;20030;-73
2021/06/28 03:38:46;;;;;;;3.38;2.05;;;21.20;99.90;;;;;;4993902;28;20022;-73
2021/06/28 03:41:12;;;;;;;4.30;1.95;;;21.20;99.90;;;;;;4993399;28;20030;-72
2021/06/28 03:43:38;;;;;;;3.28;1.88;;;21.20;99.90;;;;;;4993241;28;20026;-72
2021/06/28 03:46:04;;;;;;;2.40;1.92;;;21.20;99.90;;;;;;4992521;28;20037;-73
2021/06/28 03:48:29;;;;;;;3.08;2.13;;;21.20;99.90;;;;;;4993684;28;20038;-73
2021/06/28 03:50:55;;;;;;;2.33;1.70;;;21.20;99.90;;;;;;4993649;28;20442;-73
2021/06/28 03:53:21;;;;;;;2.03;1.70;;;21.20;99.90;;;;;;4994467;28;20376;-73
2021/06/28 03:55:47;;;;;;;4.07;1.70;;;21.20;99.90;;;;;;4993729;28;20081;-73
2021/06/28 03:58:13;;;;;;;2.38;2.08;;;21.20;99.90;;;;;;4993416;28;20121;-72
2021/06/28 04:00:38;;;;;;;4.93;2.20;;;21.20;99.90;;;;;;4993538;28;20475;-73
2021/06/28 04:03:06;;;;;;;3.65;2.53;;;21.20;99.90;;;;;;4993668;28;20030;-72
2021/06/28 04:05:32;;;;;;;3.40;2.00;;;21.10;99.90;;;;;;4993482;28;20019;-73
2021/06/28 04:07:57;;;;;;;2.50;1.90;;;21.20;99.90;;;;;;4993508;28;20101;-73
2021/06/28 04:10:24;;;;;;;3.50;2.42;;;21.20;99.90;;;;;;4993478;28;20037;-74
2021/06/28 04:12:52;;;;;;;3.35;2.33;;;21.20;99.90;;;;;;4993722;28;20038;-73
2021/06/28 04:15:19;;;;;;;3.08;2.33;;;21.20;99.90;;;;;;4993309;28;20034;-75
2021/06/28 04:17:47;;;;;;;3.58;2.88;;;21.20;99.90;;;;;;4993433;28;20022;-73
2021/06/28 04:20:16;;;;;;;3.92;2.58;;;21.10;99.90;;;;;;4993161;28;20121;-75
2021/06/28 04:22:43;;;;;;;3.72;2.60;;;21.10;99.90;;;;;;4993006;28;20072;-73
2021/06/28 04:25:11;;;;;;;4.13;2.72;;;21.10;99.90;;;;;;4992016;28;20054;-73
2021/06/28 04:27:37;;;;;;;3.35;2.38;;;21.10;99.90;;;;;;4992353;28;20120;-72
2021/06/28 04:30:06;;;;;;;4.90;2.58;;;21.10;99.90;;;;;;4992875;28;20507;-74
2021/06/28 04:32:35;;;;;;;4.45;2.90;;;21.10;99.90;;;;;;4992970;28;20065;-73
2021/06/28 04:35:02;;;;;;;3.80;2.42;;;21.10;99.90;;;;;;4992567;28;20403;-74
2021/06/28 04:37:28;;;;;;;3.28;2.38;;;21.10;99.90;;;;;;4993017;28;20023;-74
2021/06/28 04:39:54;;;;;;;2.58;2.28;;;21.10;99.90;;;;;;4991952;28;20124;-72
2021/06/28 04:42:19;;;;;;;3.58;2.70;;;21.10;99.90;;;;;;4993141;28;20053;-72
2021/06/28 04:44:45;;;;;;;2.65;2.28;;;21.10;99.90;;;;;;4992372;28;20037;-74
2021/06/28 04:47:10;;;;;;;5.82;2.47;;;21.10;99.90;;;;;;4992978;28;20030;-73
2021/06/28 04:49:36;;;;;;;3.70;2.67;;;21.10;99.90;;;;;;4991814;28;20038;-73
2021/06/28 04:52:02;;;;;;;3.47;2.25;;;21.10;99.90;;;;;;4993041;28;20626;-75
2021/06/28 04:54:27;;;;;;;4.57;2.47;;;21.10;99.90;;;;;;4991677;28;20038;-73
2021/06/28 04:56:53;;;;;;;3.25;2.17;;;21.10;99.90;;;;;;4992630;28;20023;-73
2021/06/28 04:59:19;;;;;;;3.20;2.42;;;21.10;99.90;;;;;;4991861;28;20081;-77
2021/06/28 05:01:45;;;;;;;5.38;2.20;;;21.10;99.90;;;;;;4991386;28;20034;-77
2021/06/28 05:04:11;;;;;;;3.38;2.33;;;21.10;99.90;;;;;;4991665;28;20106;-72
2021/06/28 05:06:36;;;;;;;4.13;2.45;;;21.10;99.90;;;;;;4990825;28;20418;-73
2021/06/28 05:09:03;;;;;;;6.85;2.65;;;21.10;99.90;;;;;;4992226;28;20022;-72
2021/06/28 05:11:28;;;;;;;2.47;2.28;;;21.10;99.90;;;;;;4992565;28;20033;-73
2021/06/28 05:13:54;;;;;;;2.97;2.30;;;21.10;99.90;;;;;;4991877;28;20416;-73
2021/06/28 05:16:19;;;;;;;4.72;2.47;;;21.10;99.90;;;;;;4992149;28;20060;-73
2021/06/28 05:18:45;;;;;;;3.42;2.58;;;21.10;99.90;;;;;;4991827;28;20066;-73
2021/06/28 05:21:11;;;;;;;3.47;2.55;;;21.10;99.90;;;;;;4992482;28;20026;-73
2021/06/28 05:23:36;;;;;;;4.00;2.20;;;21.10;99.90;;;;;;4991462;28;20034;-72
2021/06/28 05:26:02;;;;;;;5.25;2.55;;;21.10;99.90;;;;;;4991876;28;20524;-72
2021/06/28 05:28:28;;;;;;;3.60;2.13;;;21.10;99.90;;;;;;4991839;28;20049;-74
2021/06/28 05:30:55;;;;;;;2.83;2.13;;;21.10;99.90;;;;;;4991539;28;20022;-73
2021/06/28 05:33:20;;;;;;;4.70;2.30;;;21.00;99.90;;;;;;4993197;28;20096;-72
2021/06/28 05:35:46;;;;;;;4.68;2.20;;;21.10;99.90;;;;;;4991231;28;20153;-72
2021/06/28 05:38:12;;;;;;;3.30;2.45;;;21.10;99.90;;;;;;4991735;28;20035;-72
2021/06/28 05:40:38;;;;;;;4.25;2.63;;;21.00;99.90;;;;;;4991349;28;20011;-73
2021/06/28 05:43:04;;;;;;;3.63;2.42;;;21.00;99.90;;;;;;4991306;28;20030;-72
2021/06/28 05:45:31;;;;;;;4.15;2.00;;;21.10;99.90;;;;;;4991591;28;20030;-72
2021/06/28 05:47:57;;;;;;;5.10;2.25;;;21.10;99.90;;;;;;5006650;28;20043;-71
2021/06/28 05:50:24;;;;;;;2.92;2.40;;;21.00;99.90;;;;;;4991745;28;20042;-72
2021/06/28 05:52:50;;;;;;;4.25;2.33;;;21.00;99.90;;;;;;4990762;28;20042;-72
2021/06/28 05:55:16;;;;;;;3.42;1.90;;;21.00;99.90;;;;;;4990995;28;20101;-76
2021/06/28 05:57:42;;;;;;;3.75;2.22;;;21.10;99.90;;;;;;4990567;28;20026;-76
2021/06/28 06:00:10;;;;;;;3.85;2.50;;;21.10;99.90;;;;;;4991419;28;20517;-75
2021/06/28 06:02:35;;;;;;;3.40;2.70;;;21.10;99.90;;;;;;4990746;28;20022;-75
2021/06/28 06:05:02;;;;;;;3.70;2.05;;;21.10;99.90;;;;;;4989991;28;20403;-80
2021/06/28 06:07:28;;;;;;;6.22;2.45;;;21.10;99.90;;;;;;4986903;28;20041;-79
2021/06/28 06:09:54;;;;;;;5.97;2.75;;;21.00;99.90;;;;;;4991382;28;20039;-75
2021/06/28 06:12:19;;;;;;;4.40;2.40;;;21.10;99.90;;;;;;4990943;28;20053;-77
2021/06/28 06:14:45;;;;;;;5.13;2.78;;;21.00;99.90;;;;;;4991159;28;20018;-77
2021/06/28 06:17:11;;;;;;;2.97;2.50;;;21.00;99.90;;;;;;4991528;28;20030;-76
2021/06/28 06:19:36;;;;;;;5.32;2.63;;;21.10;99.90;;;;;;4991153;28;20081;-74
2021/06/28 06:22:03;;;;;;;5.30;2.42;;;21.00;99.90;;;;;;5006322;28;20045;-77
2021/06/28 06:24:29;;;;;;;3.35;2.30;;;21.00;99.90;;;;;;4991277;28;20386;-76
2021/06/28 06:26:56;;;;;;;3.40;2.45;;;21.00;99.90;;;;;;4991294;28;20034;-75
2021/06/28 06:29:23;;;;;;;3.58;2.72;;;21.00;99.90;;;;;;4990983;28;20038;-77
2021/06/28 06:31:49;;;;;;;4.90;2.58;;;21.00;99.90;;;;;;4991157;28;20110;-73
2021/06/28 06:34:14;;;;;;;5.90;2.42;;;21.10;99.90;;;;;;4990296;28;20110;-72
2021/06/28 06:36:40;;;;;;;4.28;2.40;;;21.10;99.90;;;;;;4990179;28;20062;-71
2021/06/28 06:39:06;;;;;;;7.10;2.63;;;21.10;99.90;;;;;;4990517;28;20030;-71
2021/06/28 06:41:31;;;;;;;3.47;2.65;;;21.10;99.90;;;;;;4991040;28;20597;-70
2021/06/28 06:43:57;;;;;;;4.05;2.47;;;21.10;99.90;;;;;;4991343;28;20541;-71
2021/06/28 06:46:22;;;;;;;2.55;2.35;;;21.10;99.90;;;;;;4991734;28;20560;-70
2021/06/28 06:48:48;;;;;;;3.08;2.42;;;21.10;99.90;;;;;;4990749;28;20034;-70
2021/06/28 06:51:14;;;;;;;3.90;2.53;;;21.10;99.90;;;;;;4991265;28;20038;-72
2021/06/28 06:53:40;;;;;;;5.35;2.88;;;21.10;99.90;;;;;;4990527;28;20038;-71
2021/06/28 06:56:05;;;;;;;4.55;2.67;;;21.10;99.90;;;;;;4991051;28;20027;-70
2021/06/28 06:58:35;;;;;;;4.03;2.22;;;21.20;99.90;;;;;;4988893;28;20027;-71
2021/06/28 07:01:02;;;;;;;3.70;2.40;;;21.20;99.90;;;;;;4989884;28;20085;-71
2021/06/28 07:03:27;;;;;;;5.13;2.75;;;21.20;99.90;;;;;;4990462;28;20034;-72
2021/06/28 07:05:53;;;;;;;6.28;2.45;;;21.20;99.90;;;;;;4988280;28;20084;-74
2021/06/28 07:08:19;;;;;;;4.68;2.60;;;21.20;99.90;;;;;;4989410;28;20034;-73
2021/06/28 07:10:45;;;;;;;3.08;2.20;;;21.20;99.90;;;;;;4989160;28;20026;-73
2021/06/28 07:13:11;;;;;;;4.65;2.88;;;21.20;99.90;;;;;;4989634;28;20376;-74
2021/06/28 07:15:36;;;;;;;6.57;2.80;;;21.20;99.90;;;;;;4989506;28;20018;-73
2021/06/28 07:18:03;;;;;;;3.83;2.35;;;21.30;99.90;;;;;;4992377;28;20019;-73
2021/06/28 07:20:29;;;;;;;4.70;2.60;;;21.20;99.90;;;;;;4991831;28;20034;-74
2021/06/28 07:22:54;;;;;;;4.75;2.70;;;21.30;99.90;;;;;;4993373;28;20022;-71
2021/06/28 07:25:22;;;;;;;5.40;2.78;;;21.20;99.90;;;;;;4993087;28;20022;-72
2021/06/28 07:27:48;;;;;;;4.13;2.35;;;21.30;99.90;;;;;;4992516;28;20823;-73
2021/06/28 07:30:17;;;;;;;5.65;2.47;;;21.30;99.90;;;;;;4990411;28;20487;-72
2021/06/28 07:32:43;;;;;;;3.92;2.85;;;21.30;99.90;;;;;;4992631;28;20040;-78
2021/06/28 07:35:10;;;;;;;5.15;3.03;;;21.30;99.90;;;;;;4992723;28;20034;-78
2021/06/28 07:37:36;;;;;;;4.70;2.22;;;21.30;99.90;;;;;;4992628;28;20015;-75
2021/06/28 07:40:04;;;;;;;5.90;3.17;;;21.30;99.90;;;;;;4992798;28;20080;-77
2021/06/28 07:42:29;;;;;;;5.05;2.67;;;21.30;99.90;;;;;;5007728;28;20029;-77
2021/06/28 07:44:55;;;;;;;4.13;2.72;;;21.40;99.90;;;;;;4992297;28;20398;-73
2021/06/28 07:47:21;;;;;;;3.35;2.85;;;21.40;99.90;;;;;;4991789;28;20030;-72
2021/06/28 07:49:46;;;;;;;4.55;2.95;;;21.40;99.90;;;;;;4991647;28;20889;-77
2021/06/28 07:52:12;;;;;;;4.00;2.40;;;21.40;99.90;;;;;;4991873;28;20034;-73
2021/06/28 07:54:40;;;;;;;5.05;2.78;;;21.40;99.90;;;;;;4992480;28;20022;-74
2021/06/28 07:57:06;;;;;;;3.90;2.80;;;21.40;99.90;;;;;;4988452;28;20502;-76
2021/06/28 07:59:32;;;;;;;3.45;2.42;;;21.40;99.90;;;;;;4990332;28;20037;-73
2021/06/28 08:01:58;;;;;;;4.05;2.63;;;21.40;99.90;;;;;;4993241;28;20474;-76
2021/06/28 08:04:27;;;;;;;4.25;3.00;;;21.40;99.90;;;;;;4993135;28;20023;-79
2021/06/28 08:06:56;;;;;;;6.93;2.85;;;21.40;99.90;;;;;;4993538;28;20038;-77
2021/06/28 08:09:21;;;;;;;4.63;2.60;;;21.40;99.90;;;;;;4993854;28;20030;-77
2021/06/28 08:11:48;;;;;;;5.15;2.75;;;21.40;99.90;;;;;;4993440;28;20348;-76
2021/06/28 08:14:15;;;;;;;5.78;3.03;;;21.40;99.90;;;;;;4993730;28;20110;-77
2021/06/28 08:16:41;;;;;;;3.50;2.60;;;21.50;99.90;;;;;;4993434;28;20022;-77
2021/06/28 08:19:07;;;;;;;8.18;3.08;;;21.40;99.90;;;;;;4993716;28;20034;-77
2021/06/28 08:21:34;;;;;;;4.50;2.78;;;21.40;99.90;;;;;;4993161;28;20525;-71
2021/06/28 08:23:59;;;;;;;4.20;3.08;;;21.50;99.90;;;;;;5024650;28;20027;-75
2021/06/28 08:26:25;;;;;;;6.55;2.83;;;21.50;99.90;;;;;;4993152;28;20049;-76
2021/06/28 08:28:51;;;;;;;6.95;2.85;;;21.50;99.90;;;;;;4991271;28;20022;-73
2021/06/28 08:31:16;;;;;;;4.45;3.03;;;21.50;99.90;;;;;;4992651;28;20038;-77
2021/06/28 08:33:44;;;;;;;4.40;3.10;;;21.40;99.90;;;;;;4992963;28;20022;-76
2021/06/28 08:36:10;;;;;;;4.65;3.05;;;21.50;99.90;;;;;;4993336;28;20069;-75
2021/06/28 08:38:38;;;;;;;4.15;3.00;;;21.50;99.90;;;;;;4992634;28;20026;-74
2021/06/28 08:41:04;;;;;;;5.13;2.78;;;21.50;99.90;;;;;;4992641;28;20030;-76
2021/06/28 08:43:30;;;;;;;6.20;2.70;;;21.50;99.90;;;;;;4992467;28;20109;-75
2021/06/28 08:45:56;;;;;;;6.43;2.63;;;21.50;99.90;;;;;;4992904;28;20026;-76
2021/06/28 08:48:22;;;;;;;5.53;2.80;;;21.50;99.90;;;;;;4992582;28;20221;-76
2021/06/28 08:50:47;;;;;;;5.25;2.72;;;21.50;99.90;;;;;;4992509;28;20018;-77
2021/06/28 08:53:15;;;;;;;5.05;3.17;;;21.50;99.90;;;;;;4992793;28;20106;-74
2021/06/28 08:55:42;;;;;;;6.35;2.80;;;21.50;99.90;;;;;;4992671;28;20097;-73
2021/06/28 08:58:07;;;;;;;4.95;3.08;;;21.60;99.90;;;;;;4992852;28;20027;-73
2021/06/28 09:00:33;;;;;;;4.68;2.90;;;21.50;99.90;;;;;;4991691;28;20037;-75
2021/06/28 09:03:04;;;;;;;8.00;3.00;;;21.60;99.90;;;;;;4995857;28;20101;-72
2021/06/28 09:05:52;;;;;;;4.35;3.25;;;21.60;99.90;;;;;;4996642;28;20586;-73
2021/06/28 09:08:19;;;;;;;3.92;2.85;;;21.60;99.90;;;;;;5007626;28;20093;-72
2021/06/28 09:10:45;;;;;;;5.97;2.67;;;21.50;99.90;;;;;;4992181;28;20394;-72
2021/06/28 09:13:12;;;;;;;5.72;3.38;;;21.60;99.90;;;;;;4992541;28;20044;-77
2021/06/28 09:15:49;;;;;;;6.40;3.35;;;21.60;99.90;;;;;;4992014;28;20030;-77
2021/06/28 09:18:19;;;;;;;4.10;3.10;;;21.60;99.90;;;;;;4992467;28;20030;-79
2021/06/28 09:20:46;;;;;;;2.83;2.58;;;21.60;99.90;;;;;;4990696;28;20026;-76
2021/06/28 09:23:21;;;;;;;5.15;2.92;;;21.50;99.90;;;;;;4992439;28;20029;-75
2021/06/28 09:25:46;;;;;;;4.25;3.17;;;21.50;99.90;;;;;;4991549;28;20100;-73
2021/06/28 09:28:13;;;;;;;5.72;3.45;;;21.50;99.90;;;;;;4991586;28;20030;-74
2021/06/28 09:30:45;;;;;;;4.45;3.00;;;21.50;99.90;;;;;;4991721;28;20406;-78
2021/06/28 09:33:10;;;;;;;5.07;2.60;;;21.50;99.90;;;;;;4991945;28;20037;-75
2021/06/28 09:35:40;;;;;;;7.57;3.15;;;21.50;99.90;;;;;;4991661;28;20022;-74
2021/06/28 09:38:31;;;;;;;4.18;3.20;;;21.60;99.90;;;;;;4992204;28;20022;-76
2021/06/28 09:40:56;;;;;;;4.47;3.10;;;21.60;99.90;;;;;;4992055;28;20487;-75
2021/06/28 09:43:26;;;;;;;4.55;3.10;;;21.60;99.90;;;;;;4992142;28;20040;-74
2021/06/28 09:45:56;;;;;;;3.78;2.53;;;21.60;99.90;;;;;;4991714;28;20037;-76
2021/06/28 09:48:27;;;;;;;5.45;2.85;;;21.60;99.90;;;;;;4991043;28;20044;-74
2021/06/28 09:51:28;;;;;;;7.13;2.78;;;21.60;99.90;;;;;;4991396;28;20030;-75
2021/06/28 09:54:06;;;;;;;5.07;2.78;;;21.70;99.90;;;;;;4991570;28;20027;-72
2021/06/28 09:56:37;;;;;;;5.72;3.17;;;21.70;99.90;;;;;;5006852;28;20019;-74
2021/06/28 09:59:32;;;;;;;5.68;4.20;;;21.60;99.90;;;;;;4990455;28;20030;-78
2021/06/28 10:02:26;;;;;;;4.85;3.30;;;21.70;99.90;;;;;;4992023;28;20080;-75
2021/06/28 10:05:17;;;;;;;4.47;3.30;;;21.70;99.90;;;;;;4991468;28;20027;-78
2021/06/28 10:07:42;;;;;;;4.40;3.10;;;21.60;99.90;;;;;;4990629;28;20049;-75
2021/06/28 10:10:24;;;;;;;5.93;3.47;;;21.60;99.90;;;;;;4991664;28;20398;-77
2021/06/28 10:12:52;;;;;;;4.63;3.72;;;21.60;99.90;;;;;;4991045;28;20038;-76
2021/06/28 10:15:23;;;;;;;5.85;3.50;;;21.60;99.90;;;;;;4994734;28;20034;-76
2021/06/28 10:17:49;;;;;;;4.50;3.60;;;21.60;99.90;;;;;;4991454;28;20026;-75
2021/06/28 10:20:21;;;;;;;4.85;3.70;;;21.60;99.90;;;;;;4991601;28;20036;-74
2021/06/28 10:22:48;;;;;;;4.55;4.00;;;21.60;99.90;;;;;;4991015;28;20105;-73
2021/06/28 10:25:18;;;;;;;3.85;3.45;;;21.70;99.90;;;;;;4989907;28;20034;-72
2021/06/28 10:27:44;;;;;;;8.52;3.90;;;21.70;99.90;;;;;;4989237;28;20082;-74
2021/06/28 10:30:13;;;;;;;5.32;4.13;;;21.60;99.90;;;;;;4989252;28;20026;-73
2021/06/28 10:32:40;;;;;;;6.75;3.90;;;21.70;99.90;;;;;;5004694;28;20117;-75
2021/06/28 10:35:12;;;;;;;5.55;3.78;;;21.70;99.90;;;;;;4989838;28;20390;-72
2021/06/28 10:37:43;;;;;;;5.80;4.22;;;21.70;99.90;;;;;;4989278;28;20041;-70
2021/06/28 10:40:14;;;;;;;6.68;4.25;;;21.70;99.90;;;;;;4990009;28;20033;-71
2021/06/28 10:42:46;;;;;;;5.68;4.20;;;21.70;99.90;;;;;;4991107;28;20382;-72
2021/06/28 10:45:13;;;;;;;5.35;4.20;;;21.70;99.90;;;;;;4991158;28;20038;-74
2021/06/28 10:47:41;;;;;;;6.63;4.57;;;21.70;99.90;;;;;;4989541;28;20037;-73
2021/06/28 10:50:09;;;;;;;7.63;4.88;;;21.70;99.90;;;;;;4991206;28;20088;-76
2021/06/28 10:52:42;;;;;;;15.55;5.88;;;21.70;99.90;;;;;;4997170;28;20034;-75
2021/06/28 10:55:16;;;;;;;18.95;6.40;;;21.80;99.90;;;;;;4991060;28;20049;-75
2021/06/28 10:57:42;;;;;;;19.60;8.85;;;21.80;99.90;;;;;;4994938;28;20022;-77
2021/06/28 11:00:09;;;;;;;16.13;6.28;;;21.80;99.90;;;;;;4994419;28;20036;-78
2021/06/28 11:02:39;;;;;;;28.38;8.52;;;21.80;99.90;;;;;;4994384;28;20654;-77
2021/06/28 11:05:07;;;;;;;22.02;7.82;;;21.80;99.90;;;;;;4994569;28;20034;-77
2021/06/28 11:07:48;;;;;;;25.92;8.75;;;21.90;99.90;;;;;;4994432;28;20035;-77
2021/06/28 11:10:36;;;;;;;23.33;9.20;;;21.80;99.90;;;;;;4994587;28;20057;-77
2021/06/28 11:13:28;;;;;;;22.50;9.57;;;21.90;99.90;;;;;;4994935;28;20054;-76
2021/06/28 11:16:30;;;;;;;23.50;8.98;;;21.90;99.90;;;;;;4994391;28;20374;-76
2021/06/28 11:18:56;;;;;;;21.70;9.05;;;21.90;99.90;;;;;;4994910;28;20026;-78
2021/06/28 11:21:41;;;;;;;19.83;9.32;;;21.90;99.90;;;;;;4993507;28;20114;-78
2021/06/28 11:24:07;;;;;;;22.33;8.80;;;21.90;99.90;;;;;;4991931;28;20053;-74
2021/06/28 11:26:34;;;;;;;17.00;8.93;;;21.90;99.90;;;;;;4992772;28;20109;-75
2021/06/28 11:29:01;;;;;;;24.05;9.45;;;21.90;99.90;;;;;;4993335;28;20027;-77
2021/06/28 11:31:29;;;;;;;19.88;9.00;;;21.90;99.90;;;;;;4993519;28;20085;-76
2021/06/28 11:33:57;;;;;;;18.90;8.27;;;21.90;99.90;;;;;;4992917;28;20466;-75
2021/06/28 11:36:23;;;;;;;13.35;8.02;;;21.90;99.90;;;;;;4991141;28;20044;-79
2021/06/28 11:38:50;;;;;;;17.33;8.57;;;21.90;99.90;;;;;;5006501;28;20529;-76
2021/06/28 11:41:19;;;;;;;16.80;7.50;;;22.00;99.90;;;;;;4990758;28;20057;-76
2021/06/28 11:43:48;;;;;;;20.65;7.97;;;21.90;99.90;;;;;;4991985;28;20026;-75
2021/06/28 11:46:33;;;;;;;15.73;8.55;;;22.00;99.90;;;;;;4992644;28;20089;-73
2021/06/28 11:49:05;;;;;;;14.32;7.00;;;22.00;99.90;;;;;;4990684;28;20054;-78
2021/06/28 11:51:42;;;;;;;18.20;7.47;;;22.00;99.90;;;;;;4992965;28;20030;-78
2021/06/28 11:54:16;;;;;;;11.30;6.90;;;22.00;99.90;;;;;;4992684;28;20026;-78
2021/06/28 11:56:50;;;;;;;13.63;7.45;;;22.00;99.90;;;;;;4992493;28;20512;-75
2021/06/28 11:59:18;;;;;;;13.95;6.60;;;22.00;99.90;;;;;;4992109;28;20489;-74
2021/06/28 12:01:56;;;;;;;12.88;7.05;;;22.00;99.90;;;;;;4992550;28;20023;-74
2021/06/28 12:04:34;;;;;;;14.55;7.53;;;22.10;99.90;;;;;;4993791;28;20062;-78
2021/06/28 12:07:01;;;;;;;11.23;6.30;;;22.10;99.90;;;;;;4994314;28;20132;-77
2021/06/28 12:09:45;;;;;;;16.10;7.35;;;22.10;99.90;;;;;;4994320;28;20152;-77
2021/06/28 12:12:14;;;;;;;15.80;6.78;;;22.10;99.90;;;;;;4993219;28;20113;-76
2021/06/28 12:14:46;;;;;;;11.85;6.72;;;22.10;99.90;;;;;;4993195;28;20030;-76
2021/06/28 12:17:17;;;;;;;11.00;7.05;;;22.10;99.90;;;;;;4993732;28;20034;-75
2021/06/28 12:19:50;;;;;;;12.27;6.85;;;22.10;99.90;;;;;;4993351;28;20096;-77
2021/06/28 12:22:26;;;;;;;10.10;6.82;;;22.10;99.90;;;;;;4993473;28;20398;-74
2021/06/28 12:24:58;;;;;;;13.52;6.32;;;22.10;99.90;;;;;;4993160;28;20026;-73
2021/06/28 12:27:27;;;;;;;9.73;6.63;;;22.10;99.90;;;;;;4993590;28;20049;-73
2021/06/28 12:29:53;;;;;;;12.45;6.78;;;22.10;99.90;;;;;;4992179;28;20026;-77
2021/06/28 12:32:30;;;;;;;10.43;6.32;;;22.10;99.90;;;;;;4993476;28;20124;-76
2021/06/28 12:35:00;;;;;;;9.20;6.10;;;22.10;99.90;;;;;;4993088;28;20022;-76
2021/06/28 12:37:47;;;;;;;10.07;6.30;;;22.20;99.90;;;;;;4993372;28;20034;-76
2021/06/28 12:40:28;;;;;;;8.90;6.35;;;22.20;99.90;;;;;;4993239;28;20393;-76
2021/06/28 12:43:00;;;;;;;10.68;6.60;;;22.20;99.90;;;;;;4975133;28;20486;-76
2021/06/28 12:45:49;;;;;;;9.95;6.00;;;22.30;99.90;;;;;;4992135;28;20442;-77
2021/06/28 12:48:18;;;;;;;15.20;6.47;;;22.30;99.90;;;;;;4992285;28;20055;-75
2021/06/28 12:50:57;;;;;;;7.93;5.50;;;22.40;99.90;;;;;;4992660;28;20046;-73